sensor_id;sensor_type;location;lat;lon;timestamp;temperature;humidity
30473;DHT22;17263;48.160;11.452;2024-01-06T00:02:06;5.60;99.90
30473;DHT22;17263;48.160;11.452;2024-01-06T00:04:33;5.60;99.90
30473;DHT22;17263;48.160;11.452;2024-01-06T00:06:59;5.60;99.90
30473;DHT22;17263;48.160;11.452;2024-01-06T00:09:25;5.60;99.90
30473;DHT22;17263;48.160;11.452;2024-01-06T00:11:51;5.60;99.90
30473;DHT22;17263;48.160;11.452;2024-01-06T00:14:17;5.60;99.90
30473;DHT22;17263;48.160;11.452;2024-01-06T00:16:44;5.60;99.90
30473;DHT22;17263;48.160;11.452;2024-01-06T00:19:11;5.60;99.90
30473;DHT22;17263;48.160;11.452;2024-01-06T00:21:37;5.60;99.90
30473;DHT22;17263;48.160;11.452;2024-01-06T00:24:03;5.60;99.90
30473;DHT22;17263;48.160;11.452;2024-01-06T00:26:29;5.60;99.90
30473;DHT22;17263;48.160;11.452;2024-01-06T00:28:56;5.60;99.90
30473;DHT22;17263;48.160;11.452;2024-01-06T00:31:22;5.60;99.90
30473;DHT22;17263;48.160;11.452;2024-01-06T00:33:48;5.60;99.90
30473;DHT22;17263;48.160;11.452;2024-01-06T00:36:14;5.60;99.90
30473;DHT22;17263;48.160;11.452;2024-01-06T00:38:40;5.60;99.90
30473;DHT22;17263;48.160;11.452;2024-01-06T00:41:07;5.70;99.90
30473;DHT22;17263;48.160;11.452;2024-01-06T00:43:33;5.70;99.90
30473;DHT22;17263;48.160;11.452;2024-01-06T00:45:59;5.70;99.90
30473;DHT22;17263;48.160;11.452;2024-01-06T00:48:25;5.70;99.90
30473;DHT22;17263;48.160;11.452;2024-01-06T00:50:52;5.70;99.90
30473;DHT22;17263;48.160;11.452;2024-01-06T00:53:18;5.60;99.90
30473;DHT22;17263;48.160;11.452;2024-01-06T00:55:44;5.60;99.90
30473;DHT22;17263;48.160;11.452;2024-01-06T00:58:10;5.60;99.90
30473;DHT22;17263;48.160;11.452;2024-01-06T01:00:37;5.60;99.90
30473;DHT22;17263;48.160;11.452;2024-01-06T01:03:03;5.60;99.90
30473;DHT22;17263;48.160;11.452;2024-01-06T01:05:29;5.60;99.90
30473;DHT22;17263;48.160;11.452;2024-01-06T01:07:55;5.60;99.90
30473;DHT22;17263;48.160;11.452;2024-01-06T01:10:21;5.70;99.90
30473;DHT22;17263;48.160;11.452;2024-01-06T01:12:47;5.70;99.90
30473;DHT22;17263;48.160;11.452;2024-01-06T01:15:13;5.60;99.90
30473;DHT22;17263;48.160;11.452;2024-01-06T01:17:39;5.60;99.90
30473;DHT22;17263;48.160;11.452;2024-01-06T01:20:06;5.60;99.90
30473;DHT22;17263;48.160;11.452;2024-01-06T01:22:32;5.60;99.90
30473;DHT22;17263;48.160;11.452;2024-01-06T01:24:58;5.60;99.90
30473;DHT22;17263;48.160;11.452;2024-01-06T01:27:31;5.60;99.90
30473;DHT22;17263;48.160;11.452;2024-01-06T01:29:57;5.50;99.90
30473;DHT22;17263;48.160;11.452;2024-01-06T01:32:23;5.60;99.90
30473;DHT22;17263;48.160;11.452;2024-01-06T01:34:49;5.60;99.90
30473;DHT22;17263;48.160;11.452;2024-01-06T01:37:16;5.60;99.90
30473;DHT22;17263;48.160;11.452;2024-01-06T01:39:42;5.50;99.90
30473;DHT22;17263;48.160;11.452;2024-01-06T01:42:09;5.50;99.90
30473;DHT22;17263;48.160;11.452;2024-01-06T01:44:35;5.50;99.90
30473;DHT22;17263;48.160;11.452;2024-01-06T01:47:04;5.50;99.90
30473;DHT22;17263;48.160;11.452;2024-01-06T01:49:30;5.60;99.90
30473;DHT22;17263;48.160;11.452;2024-01-06T01:51:58;5.60;99.90
30473;DHT22;17263;48.160;11.452;2024-01-06T01:54:25;5.50;99.90
30473;DHT22;17263;48.160;11.452;2024-01-06T01:56:52;5.50;99.90
30473;DHT22;17263;48.160;11.452;2024-01-06T01:59:18;5.50;99.90
30473;DHT22;17263;48.160;11.452;2024-01-06T02:01:46;5.50;99.90
30473;DHT22;17263;48.160;11.452;2024-01-06T02:04:12;5.50;99.90
30473;DHT22;17263;48.160;11.452;2024-01-06T02:06:38;5.50;99.90
30473;DHT22;17263;48.160;11.452;2024-01-06T02:09:04;5.50;99.90
30473;DHT22;17263;48.160;11.452;2024-01-06T02:11:31;5.50;99.90
30473;DHT22;17263;48.160;11.452;2024-01-06T02:13:57;5.50;99.90
30473;DHT22;17263;48.160;11.452;2024-01-06T02:16:23;5.50;99.90
30473;DHT22;17263;48.160;11.452;2024-01-06T02:18:49;5.50;99.90
30473;DHT22;17263;48.160;11.452;2024-01-06T02:21:15;5.50;99.90
30473;DHT22;17263;48.160;11.452;2024-01-06T02:23:43;5.50;99.90
30473;DHT22;17263;48.160;11.452;2024-01-06T02:26:10;5.50;99.90
30473;DHT22;17263;48.160;11.452;2024-01-06T02:28:36;5.60;99.90
30473;DHT22;17263;48.160;11.452;2024-01-06T02:31:02;5.60;99.90
30473;DHT22;17263;48.160;11.452;2024-01-06T02:33:28;5.50;99.90
30473;DHT22;17263;48.160;11.452;2024-01-06T02:35:54;5.60;99.90
30473;DHT22;17263;48.160;11.452;2024-01-06T02:38:20;5.60;99.90
30473;DHT22;17263;48.160;11.452;2024-01-06T02:40:46;5.60;99.90
30473;DHT22;17263;48.160;11.452;2024-01-06T02:43:12;5.50;99.90
30473;DHT22;17263;48.160;11.452;2024-01-06T02:45:39;5.50;99.90
30473;DHT22;17263;48.160;11.452;2024-01-06T02:48:05;5.60;99.90
30473;DHT22;17263;48.160;11.452;2024-01-06T02:50:31;5.50;99.90
30473;DHT22;17263;48.160;11.452;2024-01-06T02:52:57;5.50;99.90
30473;DHT22;17263;48.160;11.452;2024-01-06T02:55:23;5.50;99.90
30473;DHT22;17263;48.160;11.452;2024-01-06T02:57:49;5.60;99.90
30473;DHT22;17263;48.160;11.452;2024-01-06T03:00:15;5.50;99.90
30473;DHT22;17263;48.160;11.452;2024-01-06T03:02:41;5.60;99.90
30473;DHT22;17263;48.160;11.452;2024-01-06T03:05:09;5.60;99.90
30473;DHT22;17263;48.160;11.452;2024-01-06T03:07:36;5.60;99.90
30473;DHT22;17263;48.160;11.452;2024-01-06T03:10:02;5.60;99.90
30473;DHT22;17263;48.160;11.452;2024-01-06T03:12:28;5.60;99.90
30473;DHT22;17263;48.160;11.452;2024-01-06T03:14:54;5.60;99.90
30473;DHT22;17263;48.160;11.452;2024-01-06T03:17:20;5.60;99.90
30473;DHT22;17263;48.160;11.452;2024-01-06T03:19:46;5.60;99.90
30473;DHT22;17263;48.160;11.452;2024-01-06T03:22:12;5.60;99.90
30473;DHT22;17263;48.160;11.452;2024-01-06T03:24:40;5.50;99.90
30473;DHT22;17263;48.160;11.452;2024-01-06T03:27:06;5.50;99.90
30473;DHT22;17263;48.160;11.452;2024-01-06T03:29:32;5.50;99.90
30473;DHT22;17263;48.160;11.452;2024-01-06T03:31:58;5.50;99.90
30473;DHT22;17263;48.160;11.452;2024-01-06T03:34:24;5.50;99.90
30473;DHT22;17263;48.160;11.452;2024-01-06T03:36:50;5.50;99.90
30473;DHT22;17263;48.160;11.452;2024-01-06T03:39:16;5.50;99.90
30473;DHT22;17263;48.160;11.452;2024-01-06T03:41:42;5.50;99.90
30473;DHT22;17263;48.160;11.452;2024-01-06T03:44:08;5.50;99.90
30473;DHT22;17263;48.160;11.452;2024-01-06T03:46:35;5.50;99.90
30473;DHT22;17263;48.160;11.452;2024-01-06T03:49:01;5.60;99.90
30473;DHT22;17263;48.160;11.452;2024-01-06T03:51:27;5.50;99.90
30473;DHT22;17263;48.160;11.452;2024-01-06T03:53:54;5.50;99.90
30473;DHT22;17263;48.160;11.452;2024-01-06T03:56:20;5.50;99.90
30473;DHT22;17263;48.160;11.452;2024-01-06T03:58:46;5.50;99.90
30473;DHT22;17263;48.160;11.452;2024-01-06T04:01:12;5.50;99.90
30473;DHT22;17263;48.160;11.452;2024-01-06T04:03:39;5.40;99.90
30473;DHT22;17263;48.160;11.452;2024-01-06T04:06:08;5.40;99.90
30473;DHT22;17263;48.160;11.452;2024-01-06T04:08:36;5.30;99.90
30473;DHT22;17263;48.160;11.452;2024-01-06T04:11:02;5.40;99.90
30473;DHT22;17263;48.160;11.452;2024-01-06T04:13:28;5.40;99.90
30473;DHT22;17263;48.160;11.452;2024-01-06T04:15:54;5.40;99.90
30473;DHT22;17263;48.160;11.452;2024-01-06T04:18:20;5.40;99.90
30473;DHT22;17263;48.160;11.452;2024-01-06T04:20:46;5.30;99.90
30473;DHT22;17263;48.160;11.452;2024-01-06T04:23:12;5.40;99.90
30473;DHT22;17263;48.160;11.452;2024-01-06T04:25:38;5.40;99.90
30473;DHT22;17263;48.160;11.452;2024-01-06T04:28:05;5.30;99.90
30473;DHT22;17263;48.160;11.452;2024-01-06T04:30:31;5.30;99.90
30473;DHT22;17263;48.160;11.452;2024-01-06T04:32:57;5.30;99.90
30473;DHT22;17263;48.160;11.452;2024-01-06T04:35:24;5.30;99.90
30473;DHT22;17263;48.160;11.452;2024-01-06T04:37:51;5.30;99.90
30473;DHT22;17263;48.160;11.452;2024-01-06T04:40:17;5.30;99.90
30473;DHT22;17263;48.160;11.452;2024-01-06T04:42:43;5.20;99.90
30473;DHT22;17263;48.160;11.452;2024-01-06T04:45:09;5.20;99.90
30473;DHT22;17263;48.160;11.452;2024-01-06T04:47:35;5.10;99.90
30473;DHT22;17263;48.160;11.452;2024-01-06T04:50:01;5.10;99.90
30473;DHT22;17263;48.160;11.452;2024-01-06T04:52:27;5.10;99.90
30473;DHT22;17263;48.160;11.452;2024-01-06T04:54:55;5.10;99.90
30473;DHT22;17263;48.160;11.452;2024-01-06T04:57:21;5.00;99.90
30473;DHT22;17263;48.160;11.452;2024-01-06T04:59:47;5.00;99.90
30473;DHT22;17263;48.160;11.452;2024-01-06T05:02:13;5.00;99.90
30473;DHT22;17263;48.160;11.452;2024-01-06T05:04:39;4.90;99.90
30473;DHT22;17263;48.160;11.452;2024-01-06T05:07:05;5.00;99.90
30473;DHT22;17263;48.160;11.452;2024-01-06T05:09:31;4.90;99.90
30473;DHT22;17263;48.160;11.452;2024-01-06T05:11:57;4.90;99.90
30473;DHT22;17263;48.160;11.452;2024-01-06T05:14:23;4.90;99.90
30473;DHT22;17263;48.160;11.452;2024-01-06T05:16:49;4.90;99.90
30473;DHT22;17263;48.160;11.452;2024-01-06T05:19:15;4.80;99.90
30473;DHT22;17263;48.160;11.452;2024-01-06T05:21:47;4.80;99.90
30473;DHT22;17263;48.160;11.452;2024-01-06T05:24:13;4.80;99.90
30473;DHT22;17263;48.160;11.452;2024-01-06T05:26:39;4.80;99.90
30473;DHT22;17263;48.160;11.452;2024-01-06T05:29:05;4.80;99.90
30473;DHT22;17263;48.160;11.452;2024-01-06T05:31:31;4.80;99.90
30473;DHT22;17263;48.160;11.452;2024-01-06T05:33:57;4.80;99.90
30473;DHT22;17263;48.160;11.452;2024-01-06T05:36:24;4.80;99.90
30473;DHT22;17263;48.160;11.452;2024-01-06T05:38:50;4.80;99.90
30473;DHT22;17263;48.160;11.452;2024-01-06T05:41:16;4.80;99.90
30473;DHT22;17263;48.160;11.452;2024-01-06T05:43:42;4.80;99.90
30473;DHT22;17263;48.160;11.452;2024-01-06T05:46:08;4.80;99.90
30473;DHT22;17263;48.160;11.452;2024-01-06T05:48:36;4.80;99.90
30473;DHT22;17263;48.160;11.452;2024-01-06T05:51:06;4.80;99.90
30473;DHT22;17263;48.160;11.452;2024-01-06T05:53:32;4.80;99.90
30473;DHT22;17263;48.160;11.452;2024-01-06T05:55:58;4.80;99.90
30473;DHT22;17263;48.160;11.452;2024-01-06T05:58:24;4.80;99.90
30473;DHT22;17263;48.160;11.452;2024-01-06T06:00:50;4.80;99.90
30473;DHT22;17263;48.160;11.452;2024-01-06T06:03:16;4.80;99.90
30473;DHT22;17263;48.160;11.452;2024-01-06T06:05:43;4.80;99.90
30473;DHT22;17263;48.160;11.452;2024-01-06T06:08:09;4.80;99.90
30473;DHT22;17263;48.160;11.452;2024-01-06T06:10:35;4.80;99.90
30473;DHT22;17263;48.160;11.452;2024-01-06T06:13:17;4.80;99.90
30473;DHT22;17263;48.160;11.452;2024-01-06T06:15:43;4.70;99.90
30473;DHT22;17263;48.160;11.452;2024-01-06T06:18:09;4.70;99.90
30473;DHT22;17263;48.160;11.452;2024-01-06T06:20:35;4.70;99.90
30473;DHT22;17263;48.160;11.452;2024-01-06T06:23:01;4.70;99.90
30473;DHT22;17263;48.160;11.452;2024-01-06T06:25:27;4.70;99.90
30473;DHT22;17263;48.160;11.452;2024-01-06T06:27:53;4.70;99.90
30473;DHT22;17263;48.160;11.452;2024-01-06T06:30:19;4.70;99.90
30473;DHT22;17263;48.160;11.452;2024-01-06T06:32:45;4.70;99.90
30473;DHT22;17263;48.160;11.452;2024-01-06T06:35:12;4.70;99.90
30473;DHT22;17263;48.160;11.452;2024-01-06T06:37:38;4.60;99.90
30473;DHT22;17263;48.160;11.452;2024-01-06T06:40:04;4.60;99.90
30473;DHT22;17263;48.160;11.452;2024-01-06T06:42:30;4.50;99.90
30473;DHT22;17263;48.160;11.452;2024-01-06T06:44:56;4.50;99.90
30473;DHT22;17263;48.160;11.452;2024-01-06T06:47:22;4.50;99.90
30473;DHT22;17263;48.160;11.452;2024-01-06T06:49:48;4.40;99.90
30473;DHT22;17263;48.160;11.452;2024-01-06T06:52:14;4.30;99.90
30473;DHT22;17263;48.160;11.452;2024-01-06T06:54:40;4.30;99.90
30473;DHT22;17263;48.160;11.452;2024-01-06T06:57:06;4.30;99.90
30473;DHT22;17263;48.160;11.452;2024-01-06T06:59:33;4.30;99.90
30473;DHT22;17263;48.160;11.452;2024-01-06T07:01:59;4.20;99.90
30473;DHT22;17263;48.160;11.452;2024-01-06T07:04:25;4.20;99.90
30473;DHT22;17263;48.160;11.452;2024-01-06T07:06:51;4.20;99.90
30473;DHT22;17263;48.160;11.452;2024-01-06T07:09:17;4.20;99.90
30473;DHT22;17263;48.160;11.452;2024-01-06T07:11:43;4.20;99.90
30473;DHT22;17263;48.160;11.452;2024-01-06T07:14:09;4.20;99.90
30473;DHT22;17263;48.160;11.452;2024-01-06T07:16:35;4.20;99.90
30473;DHT22;17263;48.160;11.452;2024-01-06T07:19:01;4.20;99.90
30473;DHT22;17263;48.160;11.452;2024-01-06T07:21:27;4.30;99.90
30473;DHT22;17263;48.160;11.452;2024-01-06T07:23:53;4.30;99.90
30473;DHT22;17263;48.160;11.452;2024-01-06T07:26:20;4.30;99.90
30473;DHT22;17263;48.160;11.452;2024-01-06T07:28:46;4.30;99.90
30473;DHT22;17263;48.160;11.452;2024-01-06T07:31:12;4.30;99.90
30473;DHT22;17263;48.160;11.452;2024-01-06T07:33:38;4.30;99.90
30473;DHT22;17263;48.160;11.452;2024-01-06T07:36:05;4.40;99.90
30473;DHT22;17263;48.160;11.452;2024-01-06T07:38:31;4.40;99.90
30473;DHT22;17263;48.160;11.452;2024-01-06T07:40:57;4.40;99.90
30473;DHT22;17263;48.160;11.452;2024-01-06T07:43:23;4.40;99.90
30473;DHT22;17263;48.160;11.452;2024-01-06T07:45:49;4.40;99.90
30473;DHT22;17263;48.160;11.452;2024-01-06T07:48:16;4.40;99.90
30473;DHT22;17263;48.160;11.452;2024-01-06T07:50:42;4.40;99.90
30473;DHT22;17263;48.160;11.452;2024-01-06T07:53:09;4.40;99.90
30473;DHT22;17263;48.160;11.452;2024-01-06T07:55:35;4.40;99.90
30473;DHT22;17263;48.160;11.452;2024-01-06T07:58:01;4.40;99.90
30473;DHT22;17263;48.160;11.452;2024-01-06T08:00:27;4.40;99.90
30473;DHT22;17263;48.160;11.452;2024-01-06T08:02:53;4.40;99.90
30473;DHT22;17263;48.160;11.452;2024-01-06T08:05:19;4.40;99.90
30473;DHT22;17263;48.160;11.452;2024-01-06T08:07:45;4.30;99.90
30473;DHT22;17263;48.160;11.452;2024-01-06T08:10:11;4.40;99.90
30473;DHT22;17263;48.160;11.452;2024-01-06T08:12:37;4.40;99.90
30473;DHT22;17263;48.160;11.452;2024-01-06T08:15:03;4.40;99.90
30473;DHT22;17263;48.160;11.452;2024-01-06T08:17:30;4.40;99.90
30473;DHT22;17263;48.160;11.452;2024-01-06T08:19:56;4.40;99.90
30473;DHT22;17263;48.160;11.452;2024-01-06T08:22:22;4.40;99.90
30473;DHT22;17263;48.160;11.452;2024-01-06T08:24:48;4.40;99.90
30473;DHT22;17263;48.160;11.452;2024-01-06T08:27:14;4.50;99.90
30473;DHT22;17263;48.160;11.452;2024-01-06T08:29:40;4.50;99.90
30473;DHT22;17263;48.160;11.452;2024-01-06T08:32:06;4.50;99.90
30473;DHT22;17263;48.160;11.452;2024-01-06T08:34:33;4.50;99.90
30473;DHT22;17263;48.160;11.452;2024-01-06T08:36:59;4.50;99.90
30473;DHT22;17263;48.160;11.452;2024-01-06T08:39:25;4.60;99.90
30473;DHT22;17263;48.160;11.452;2024-01-06T08:41:51;4.60;99.90
30473;DHT22;17263;48.160;11.452;2024-01-06T08:44:17;4.50;99.90
30473;DHT22;17263;48.160;11.452;2024-01-06T08:46:43;4.60;99.90
30473;DHT22;17263;48.160;11.452;2024-01-06T08:49:09;4.60;99.90
30473;DHT22;17263;48.160;11.452;2024-01-06T08:51:35;4.60;99.90
30473;DHT22;17263;48.160;11.452;2024-01-06T08:54:01;4.60;99.90
30473;DHT22;17263;48.160;11.452;2024-01-06T08:56:30;4.70;99.90
30473;DHT22;17263;48.160;11.452;2024-01-06T08:58:56;4.60;99.90
30473;DHT22;17263;48.160;11.452;2024-01-06T09:01:22;4.60;99.90
30473;DHT22;17263;48.160;11.452;2024-01-06T09:03:48;4.60;99.90
30473;DHT22;17263;48.160;11.452;2024-01-06T09:06:16;4.60;99.90
30473;DHT22;17263;48.160;11.452;2024-01-06T09:08:42;4.60;99.90
30473;DHT22;17263;48.160;11.452;2024-01-06T09:11:08;4.70;99.90
30473;DHT22;17263;48.160;11.452;2024-01-06T09:13:34;4.70;99.90
30473;DHT22;17263;48.160;11.452;2024-01-06T09:16:00;4.70;99.90
30473;DHT22;17263;48.160;11.452;2024-01-06T09:18:26;4.70;99.90
30473;DHT22;17263;48.160;11.452;2024-01-06T09:20:53;4.70;99.90
30473;DHT22;17263;48.160;11.452;2024-01-06T09:23:20;4.70;99.90
30473;DHT22;17263;48.160;11.452;2024-01-06T09:25:46;4.80;99.90
30473;DHT22;17263;48.160;11.452;2024-01-06T09:28:15;4.80;99.90
30473;DHT22;17263;48.160;11.452;2024-01-06T09:30:41;4.80;99.90
30473;DHT22;17263;48.160;11.452;2024-01-06T09:33:07;4.80;99.90
30473;DHT22;17263;48.160;11.452;2024-01-06T09:35:34;4.80;99.90
30473;DHT22;17263;48.160;11.452;2024-01-06T09:38:00;4.80;99.90
30473;DHT22;17263;48.160;11.452;2024-01-06T09:40:26;4.80;99.90
30473;DHT22;17263;48.160;11.452;2024-01-06T09:42:54;4.80;99.90
30473;DHT22;17263;48.160;11.452;2024-01-06T09:45:20;4.80;99.90
30473;DHT22;17263;48.160;11.452;2024-01-06T09:47:49;4.80;99.90
30473;DHT22;17263;48.160;11.452;2024-01-06T09:50:18;4.70;99.90
30473;DHT22;17263;48.160;11.452;2024-01-06T09:52:48;4.80;99.90
30473;DHT22;17263;48.160;11.452;2024-01-06T09:55:26;4.80;99.90
30473;DHT22;17263;48.160;11.452;2024-01-06T09:57:53;4.80;99.90
30473;DHT22;17263;48.160;11.452;2024-01-06T10:00:20;4.80;99.90
30473;DHT22;17263;48.160;11.452;2024-01-06T10:02:47;4.70;99.90
30473;DHT22;17263;48.160;11.452;2024-01-06T10:05:15;4.80;99.90
30473;DHT22;17263;48.160;11.452;2024-01-06T10:07:43;4.80;99.90
30473;DHT22;17263;48.160;11.452;2024-01-06T10:10:10;4.80;99.90
30473;DHT22;17263;48.160;11.452;2024-01-06T10:12:42;4.80;99.90
30473;DHT22;17263;48.160;11.452;2024-01-06T10:15:10;4.80;99.90
30473;DHT22;17263;48.160;11.452;2024-01-06T10:17:40;4.90;99.90
30473;DHT22;17263;48.160;11.452;2024-01-06T10:20:09;4.90;99.90
30473;DHT22;17263;48.160;11.452;2024-01-06T10:22:36;4.90;99.90
30473;DHT22;17263;48.160;11.452;2024-01-06T10:25:06;4.90;99.90
30473;DHT22;17263;48.160;11.452;2024-01-06T10:27:36;4.90;99.90
30473;DHT22;17263;48.160;11.452;2024-01-06T10:30:04;4.90;99.90
30473;DHT22;17263;48.160;11.452;2024-01-06T10:32:32;4.90;99.90
30473;DHT22;17263;48.160;11.452;2024-01-06T10:34:58;4.90;99.90
30473;DHT22;17263;48.160;11.452;2024-01-06T10:37:27;5.00;99.90
30473;DHT22;17263;48.160;11.452;2024-01-06T10:40:13;5.00;99.90
30473;DHT22;17263;48.160;11.452;2024-01-06T10:42:40;5.00;99.90
30473;DHT22;17263;48.160;11.452;2024-01-06T10:45:09;4.90;99.90
30473;DHT22;17263;48.160;11.452;2024-01-06T10:47:40;5.00;99.90
30473;DHT22;17263;48.160;11.452;2024-01-06T10:50:07;4.90;99.90
30473;DHT22;17263;48.160;11.452;2024-01-06T10:52:38;4.90;99.90
30473;DHT22;17263;48.160;11.452;2024-01-06T10:55:05;5.00;99.90
30473;DHT22;17263;48.160;11.452;2024-01-06T10:57:32;5.00;99.90
30473;DHT22;17263;48.160;11.452;2024-01-06T11:00:00;5.00;99.90
30473;DHT22;17263;48.160;11.452;2024-01-06T11:02:27;5.00;99.90
30473;DHT22;17263;48.160;11.452;2024-01-06T11:04:57;5.00;99.90
30473;DHT22;17263;48.160;11.452;2024-01-06T11:07:25;5.00;99.90
30473;DHT22;17263;48.160;11.452;2024-01-06T11:09:57;5.00;99.90
30473;DHT22;17263;48.160;11.452;2024-01-06T11:12:24;5.00;99.90
30473;DHT22;17263;48.160;11.452;2024-01-06T11:14:52;5.00;99.90
30473;DHT22;17263;48.160;11.452;2024-01-06T11:17:58;5.00;99.90
30473;DHT22;17263;48.160;11.452;2024-01-06T11:20:27;5.00;99.90
30473;DHT22;17263;48.160;11.452;2024-01-06T11:22:53;5.00;99.90
30473;DHT22;17263;48.160;11.452;2024-01-06T11:25:22;5.00;99.90
30473;DHT22;17263;48.160;11.452;2024-01-06T11:27:49;5.00;99.90
30473;DHT22;17263;48.160;11.452;2024-01-06T11:32:45;5.10;99.90
30473;DHT22;17263;48.160;11.452;2024-01-06T11:35:16;5.10;99.90
30473;DHT22;17263;48.160;11.452;2024-01-06T11:42:48;5.00;99.90
30473;DHT22;17263;48.160;11.452;2024-01-06T11:45:15;5.00;99.90
30473;DHT22;17263;48.160;11.452;2024-01-06T11:47:47;5.00;99.90
30473;DHT22;17263;48.160;11.452;2024-01-06T11:50:14;5.00;99.90
30473;DHT22;17263;48.160;11.452;2024-01-06T11:52:40;5.10;99.90
30473;DHT22;17263;48.160;11.452;2024-01-06T11:55:07;5.10;99.90
30473;DHT22;17263;48.160;11.452;2024-01-06T11:57:37;5.10;99.90
30473;DHT22;17263;48.160;11.452;2024-01-06T12:00:04;5.10;99.90
30473;DHT22;17263;48.160;11.452;2024-01-06T12:02:30;5.10;99.90
30473;DHT22;17263;48.160;11.452;2024-01-06T12:04:56;5.10;99.90
30473;DHT22;17263;48.160;11.452;2024-01-06T12:07:23;5.20;99.90
30473;DHT22;17263;48.160;11.452;2024-01-06T12:09:52;5.20;99.90
30473;DHT22;17263;48.160;11.452;2024-01-06T12:12:25;5.30;99.90
30473;DHT22;17263;48.160;11.452;2024-01-06T12:14:52;5.30;99.90
30473;DHT22;17263;48.160;11.452;2024-01-06T12:17:21;5.30;99.90
30473;DHT22;17263;48.160;11.452;2024-01-06T12:19:48;5.30;99.90
30473;DHT22;17263;48.160;11.452;2024-01-06T12:22:15;5.30;99.90
30473;DHT22;17263;48.160;11.452;2024-01-06T12:24:42;5.20;99.90
30473;DHT22;17263;48.160;11.452;2024-01-06T12:27:11;5.30;99.90
30473;DHT22;17263;48.160;11.452;2024-01-06T12:29:38;5.20;99.90
30473;DHT22;17263;48.160;11.452;2024-01-06T12:32:06;5.20;99.90
30473;DHT22;17263;48.160;11.452;2024-01-06T12:34:34;5.20;99.90
30473;DHT22;17263;48.160;11.452;2024-01-06T12:37:00;5.20;99.90
30473;DHT22;17263;48.160;11.452;2024-01-06T12:39:31;5.10;99.90
30473;DHT22;17263;48.160;11.452;2024-01-06T12:41:58;5.10;99.90
30473;DHT22;17263;48.160;11.452;2024-01-06T12:44:26;5.10;99.90
30473;DHT22;17263;48.160;11.452;2024-01-06T12:46:53;5.10;99.90
30473;DHT22;17263;48.160;11.452;2024-01-06T12:49:19;5.10;99.90
30473;DHT22;17263;48.160;11.452;2024-01-06T12:51:45;5.00;99.90
30473;DHT22;17263;48.160;11.452;2024-01-06T12:54:11;5.00;99.90
30473;DHT22;17263;48.160;11.452;2024-01-06T12:56:38;5.00;99.90
30473;DHT22;17263;48.160;11.452;2024-01-06T12:59:04;5.00;99.90
30473;DHT22;17263;48.160;11.452;2024-01-06T13:01:30;5.00;99.90
30473;DHT22;17263;48.160;11.452;2024-01-06T13:03:56;5.00;99.90
30473;DHT22;17263;48.160;11.452;2024-01-06T13:06:24;4.90;99.90
30473;DHT22;17263;48.160;11.452;2024-01-06T13:08:51;4.90;99.90
30473;DHT22;17263;48.160;11.452;2024-01-06T13:11:17;4.80;99.90
30473;DHT22;17263;48.160;11.452;2024-01-06T13:13:44;4.80;99.90
30473;DHT22;17263;48.160;11.452;2024-01-06T13:16:10;4.80;99.90
30473;DHT22;17263;48.160;11.452;2024-01-06T13:18:36;4.80;99.90
30473;DHT22;17263;48.160;11.452;2024-01-06T13:21:03;4.70;99.90
30473;DHT22;17263;48.160;11.452;2024-01-06T13:23:29;4.70;99.90
30473;DHT22;17263;48.160;11.452;2024-01-06T13:25:55;4.60;99.90
30473;DHT22;17263;48.160;11.452;2024-01-06T13:28:23;4.60;99.90
30473;DHT22;17263;48.160;11.452;2024-01-06T13:30:50;4.60;99.90
30473;DHT22;17263;48.160;11.452;2024-01-06T13:33:16;4.60;99.90
30473;DHT22;17263;48.160;11.452;2024-01-06T13:35:42;4.70;99.90
30473;DHT22;17263;48.160;11.452;2024-01-06T13:38:08;4.60;99.90
30473;DHT22;17263;48.160;11.452;2024-01-06T13:40:35;4.60;99.90
30473;DHT22;17263;48.160;11.452;2024-01-06T13:43:01;4.60;99.90
30473;DHT22;17263;48.160;11.452;2024-01-06T13:45:31;4.50;99.90
30473;DHT22;17263;48.160;11.452;2024-01-06T13:47:57;4.50;99.90
30473;DHT22;17263;48.160;11.452;2024-01-06T13:50:23;4.40;99.90
30473;DHT22;17263;48.160;11.452;2024-01-06T13:52:49;4.30;99.90
30473;DHT22;17263;48.160;11.452;2024-01-06T13:55:15;4.30;99.90
30473;DHT22;17263;48.160;11.452;2024-01-06T13:57:41;4.20;99.90
30473;DHT22;17263;48.160;11.452;2024-01-06T14:00:09;4.20;99.90
30473;DHT22;17263;48.160;11.452;2024-01-06T14:02:37;4.20;99.90
30473;DHT22;17263;48.160;11.452;2024-01-06T14:05:04;4.20;99.90
30473;DHT22;17263;48.160;11.452;2024-01-06T14:07:35;4.20;99.90
30473;DHT22;17263;48.160;11.452;2024-01-06T14:10:02;4.20;99.90
30473;DHT22;17263;48.160;11.452;2024-01-06T14:12:30;4.10;99.90
30473;DHT22;17263;48.160;11.452;2024-01-06T14:14:56;4.20;99.90
30473;DHT22;17263;48.160;11.452;2024-01-06T14:17:23;4.20;99.90
30473;DHT22;17263;48.160;11.452;2024-01-06T14:19:49;4.10;99.90
30473;DHT22;17263;48.160;11.452;2024-01-06T14:22:15;4.10;99.90
30473;DHT22;17263;48.160;11.452;2024-01-06T14:24:41;4.10;99.90
30473;DHT22;17263;48.160;11.452;2024-01-06T14:27:07;4.10;99.90
30473;DHT22;17263;48.160;11.452;2024-01-06T14:29:33;4.10;99.90
30473;DHT22;17263;48.160;11.452;2024-01-06T14:32:00;4.10;99.90
30473;DHT22;17263;48.160;11.452;2024-01-06T14:34:26;4.10;99.90
30473;DHT22;17263;48.160;11.452;2024-01-06T14:36:54;4.10;99.90
30473;DHT22;17263;48.160;11.452;2024-01-06T14:39:20;4.10;99.90
30473;DHT22;17263;48.160;11.452;2024-01-06T14:41:50;4.10;99.90
30473;DHT22;17263;48.160;11.452;2024-01-06T14:44:18;4.20;99.90
30473;DHT22;17263;48.160;11.452;2024-01-06T14:46:48;4.10;99.90
30473;DHT22;17263;48.160;11.452;2024-01-06T14:49:17;4.20;99.90
30473;DHT22;17263;48.160;11.452;2024-01-06T14:51:43;4.10;99.90
30473;DHT22;17263;48.160;11.452;2024-01-06T14:54:10;4.10;99.90
30473;DHT22;17263;48.160;11.452;2024-01-06T14:56:40;4.00;99.90
30473;DHT22;17263;48.160;11.452;2024-01-06T14:59:07;3.90;99.90
30473;DHT22;17263;48.160;11.452;2024-01-06T15:01:34;3.90;99.90
30473;DHT22;17263;48.160;11.452;2024-01-06T15:04:00;3.90;99.90
30473;DHT22;17263;48.160;11.452;2024-01-06T15:06:26;3.80;99.90
30473;DHT22;17263;48.160;11.452;2024-01-06T15:08:52;3.80;99.90
30473;DHT22;17263;48.160;11.452;2024-01-06T15:11:19;3.70;99.90
30473;DHT22;17263;48.160;11.452;2024-01-06T15:13:45;3.70;99.90
30473;DHT22;17263;48.160;11.452;2024-01-06T15:16:11;3.70;99.90
30473;DHT22;17263;48.160;11.452;2024-01-06T15:18:38;3.70;99.90
30473;DHT22;17263;48.160;11.452;2024-01-06T15:21:04;3.60;99.90
30473;DHT22;17263;48.160;11.452;2024-01-06T15:23:31;3.70;99.90
30473;DHT22;17263;48.160;11.452;2024-01-06T15:25:57;3.70;99.90
30473;DHT22;17263;48.160;11.452;2024-01-06T15:28:23;3.60;99.90
30473;DHT22;17263;48.160;11.452;2024-01-06T15:30:50;3.60;99.90
30473;DHT22;17263;48.160;11.452;2024-01-06T15:33:16;3.60;99.90
30473;DHT22;17263;48.160;11.452;2024-01-06T15:35:43;3.60;99.90